Archival Weather

Fukuoka

Fukuoka, Japan (RJFF)

Report from: Tuesday, August 16, 2022 1:33 PM JST
Current time: Sunday, November 27, 2022 6:52 PM JST

Current weather
Weather history
Weather forecast

Present weatherHeavy rain showers, mist
Temperature28.0°C (82.4°F)
Heat index34.4°C (93.9°F)
Dew point27.0°C (80.6°F)
Winds 8 kts (4.1 m/s, 9.2 mph) Vrb
Winds variableWinds variable from Southeast (130°) to South-Southwest (200°)
Visibility0.7 mi. (1.2 km)
Clouds Few clouds 800 ft. (244 m)
Scattered clouds with cumulonimbus 2,000 ft. (610 m)
Ceiling: Broken clouds 2,500 ft. (762 m)
Altimeter29.71 in.Hg (1006 mB)
Precip. events C 1:03 PM
Relative humidity94 %
Density altitude2,214 ft. (675 m)
Remarks Special weather observation
Cumulonimbus clouds observed overhead moving northeast
Flight conditions Low Instrument Meteorological Conditions
Raw dataSPJP31 KWBC 160447 SPECI RJFF 160433Z 15008KT 130V200 1200 R16/0800VP2000D +SHRA BR FEW008 SCT020CB BKN025 28/27 Q1006 RMK 1ST008 3CB020 5CU025 A2973 CB OHD MOV NE RI++
An error has occurred. This application may no longer respond until reloaded. Reload 🗙